createdAt,value
2018-04-25T00:00:12.195Z,23.68
2018-04-25T00:02:38.867Z,23.68
2018-04-25T00:05:05.541Z,23.68
2018-04-25T00:07:32.181Z,23.69
2018-04-25T00:09:58.822Z,23.73
2018-04-25T00:12:25.545Z,23.72
2018-04-25T00:14:52.178Z,23.66
2018-04-25T00:17:18.817Z,23.68
2018-04-25T00:19:45.481Z,23.64
2018-04-25T00:22:12.193Z,23.64
2018-04-25T00:24:38.829Z,23.63
2018-04-25T00:27:05.426Z,23.61
2018-04-25T00:29:32.062Z,23.64
2018-04-25T00:31:58.736Z,23.60
2018-04-25T00:34:25.407Z,23.65
2018-04-25T00:36:52.007Z,23.64
2018-04-25T00:39:18.715Z,23.65
2018-04-25T00:41:45.352Z,23.64
2018-04-25T00:44:11.950Z,23.56
2018-04-25T00:46:38.593Z,23.56
2018-04-25T00:49:05.225Z,23.56
2018-04-25T00:51:31.936Z,23.59
2018-04-25T00:53:59.614Z,23.57
2018-04-25T00:56:25.239Z,23.53
2018-04-25T00:58:51.957Z,23.51
2018-04-25T01:01:18.557Z,23.45
2018-04-25T01:03:45.195Z,23.51
2018-04-25T01:06:11.838Z,23.48
2018-04-25T01:08:38.504Z,23.49
2018-04-25T01:11:05.144Z,23.47
2018-04-25T01:13:31.855Z,23.45
2018-04-25T01:15:58.488Z,23.43
2018-04-25T01:18:25.090Z,23.43
2018-04-25T01:20:51.743Z,23.44
2018-04-25T01:23:18.409Z,23.37
2018-04-25T01:25:45.021Z,23.37
2018-04-25T01:28:11.696Z,23.35
2018-04-25T01:30:38.388Z,23.34
2018-04-25T01:33:05.060Z,23.34
2018-04-25T01:35:31.723Z,23.31
2018-04-25T01:37:58.403Z,23.24
2018-04-25T01:40:24.998Z,23.31
2018-04-25T01:42:51.640Z,23.30
2018-04-25T01:45:18.312Z,23.27
2018-04-25T01:47:44.909Z,23.26
2018-04-25T01:50:11.587Z,23.24
2018-04-25T01:52:38.190Z,23.19
2018-04-25T01:55:04.834Z,23.15
2018-04-25T01:57:31.503Z,23.16
2018-04-25T01:59:58.180Z,23.21
2018-04-25T02:02:24.824Z,23.28
2018-04-25T02:04:51.454Z,23.21
2018-04-25T02:07:18.115Z,23.06
2018-04-25T02:09:44.762Z,23.14
2018-04-25T02:12:11.353Z,23.14
2018-04-25T02:14:38.039Z,23.11
2018-04-25T02:17:04.749Z,23.16
2018-04-25T02:19:31.351Z,23.12
2018-04-25T02:21:58.029Z,23.11
2018-04-25T02:24:24.682Z,23.05
2018-04-25T02:26:52.632Z,23.05
2018-04-25T02:29:17.950Z,23.07
2018-04-25T02:31:44.619Z,23.06
2018-04-25T02:34:11.257Z,23.07
2018-04-25T02:36:37.932Z,23.04
2018-04-25T02:39:04.566Z,23.00
2018-04-25T02:41:31.218Z,22.96
2018-04-25T02:43:57.844Z,22.97
2018-04-25T02:46:24.526Z,22.99
2018-04-25T02:48:51.126Z,23.00
2018-04-25T02:51:17.800Z,22.94
2018-04-25T02:53:44.443Z,22.97
2018-04-25T02:56:11.113Z,22.97
2018-04-25T02:58:37.787Z,22.97
2018-04-25T03:01:04.383Z,22.97
2018-04-25T03:03:31.056Z,22.86
2018-04-25T03:05:57.727Z,22.85
2018-04-25T03:08:24.335Z,22.89
2018-04-25T03:10:50.957Z,22.88
2018-04-25T03:13:17.685Z,22.73
2018-04-25T03:15:44.324Z,22.63
2018-04-25T03:18:10.923Z,22.39
2018-04-25T03:20:37.594Z,22.45
2018-04-25T03:23:04.267Z,22.44
2018-04-25T03:25:30.901Z,22.41
2018-04-25T03:27:57.553Z,22.44
2018-04-25T03:30:24.147Z,22.51
2018-04-25T03:32:50.824Z,22.53
2018-04-25T03:35:18.712Z,22.41
2018-04-25T03:37:44.056Z,22.42
2018-04-25T03:40:10.702Z,22.31
2018-04-25T03:42:37.378Z,22.17
2018-04-25T03:45:04.043Z,22.10
2018-04-25T03:47:30.751Z,22.12
2018-04-25T03:49:57.384Z,22.23
2018-04-25T03:52:23.983Z,22.27
2018-04-25T03:54:51.451Z,22.28
2018-04-25T03:57:18.088Z,22.37
2018-04-25T03:59:44.725Z,22.29
2018-04-25T04:02:11.359Z,22.29
2018-04-25T04:04:38.093Z,22.30
2018-04-25T04:07:04.740Z,22.24
2018-04-25T04:09:31.371Z,22.25
2018-04-25T04:11:58.047Z,22.17
2018-04-25T04:14:24.689Z,22.28
2018-04-25T04:16:51.374Z,22.37
2018-04-25T04:19:18.065Z,22.43
2018-04-25T04:21:44.694Z,22.45
2018-04-25T04:24:11.359Z,22.31
2018-04-25T04:26:38.003Z,22.18
2018-04-25T04:29:04.634Z,22.17
2018-04-25T04:31:32.649Z,22.37
2018-04-25T04:33:57.945Z,22.33
2018-04-25T04:36:24.649Z,22.41
2018-04-25T04:38:51.322Z,22.52
2018-04-25T04:41:17.921Z,22.63
2018-04-25T04:43:44.641Z,22.75
2018-04-25T04:46:11.343Z,22.75
2018-04-25T04:48:37.937Z,22.71
2018-04-25T04:51:04.634Z,22.76
2018-04-25T04:53:31.319Z,22.87
2018-04-25T04:55:58.017Z,22.78
2018-04-25T04:58:24.661Z,22.83
2018-04-25T05:00:51.372Z,22.89
2018-04-25T05:03:17.981Z,22.92
2018-04-25T05:05:44.622Z,23.04
2018-04-25T05:08:11.258Z,23.09
2018-04-25T05:10:37.919Z,23.17
2018-04-25T05:13:04.567Z,23.08
2018-04-25T05:15:31.203Z,22.99
2018-04-25T05:17:57.929Z,22.98
2018-04-25T05:20:24.620Z,23.02
2018-04-25T05:22:51.267Z,23.07
2018-04-25T05:25:17.904Z,23.05
2018-04-25T05:27:44.581Z,23.19
2018-04-25T05:30:11.263Z,23.14
2018-04-25T05:32:37.865Z,23.12
2018-04-25T05:35:04.497Z,23.20
2018-04-25T05:37:31.184Z,23.30
2018-04-25T05:40:01.180Z,23.34
2018-04-25T05:42:27.823Z,23.39
2018-04-25T05:44:54.508Z,23.53
2018-04-25T05:47:21.185Z,23.69
2018-04-25T05:49:47.829Z,23.76
2018-04-25T05:52:14.481Z,23.83
2018-04-25T05:54:41.164Z,23.93
2018-04-25T05:57:07.796Z,23.96
2018-04-25T05:59:34.392Z,23.97
2018-04-25T06:02:01.063Z,24.09
2018-04-25T06:04:27.662Z,24.07
2018-04-25T06:06:54.334Z,24.15
2018-04-25T06:09:20.969Z,24.15
2018-04-25T06:11:47.618Z,24.27
2018-04-25T06:14:14.245Z,24.25
2018-04-25T06:16:40.957Z,24.31
2018-04-25T06:19:07.572Z,24.30
2018-04-25T06:21:34.287Z,24.29
2018-04-25T06:24:00.978Z,23.88
2018-04-25T06:26:27.628Z,23.73
2018-04-25T06:28:54.383Z,23.84
2018-04-25T06:31:21.006Z,23.82
2018-04-25T06:33:47.725Z,23.90
2018-04-25T06:36:15.410Z,24.00
2018-04-25T06:38:42.088Z,24.17
2018-04-25T06:41:08.714Z,24.26
2018-04-25T06:43:35.354Z,24.32
2018-04-25T06:46:02.066Z,24.35
2018-04-25T06:48:28.767Z,24.44
2018-04-25T06:50:55.439Z,24.49
2018-04-25T06:53:22.088Z,24.50
2018-04-25T06:55:48.755Z,24.48
2018-04-25T06:58:15.438Z,24.59
2018-04-25T07:00:42.103Z,24.55
2018-04-25T07:03:08.701Z,24.51
2018-04-25T07:05:35.643Z,24.63
2018-04-25T07:08:02.423Z,24.62
2018-04-25T07:10:29.008Z,24.67
2018-04-25T07:12:58.126Z,24.78
2018-04-25T07:15:24.928Z,24.67
2018-04-25T07:17:51.635Z,24.68
2018-04-25T07:20:18.265Z,24.67
2018-04-25T07:22:46.372Z,24.66
2018-04-25T07:25:11.852Z,24.73
2018-04-25T07:27:38.516Z,24.72
2018-04-25T07:30:05.128Z,24.83
2018-04-25T07:32:31.859Z,24.85
2018-04-25T07:34:58.505Z,24.94
2018-04-25T07:37:25.152Z,25.01
2018-04-25T07:39:51.848Z,24.90
2018-04-25T07:42:18.512Z,24.92
2018-04-25T07:44:45.368Z,24.89
2018-04-25T07:47:12.004Z,24.95
2018-04-25T07:49:38.689Z,24.90
2018-04-25T07:52:05.305Z,24.93
2018-04-25T07:54:32.579Z,24.92
2018-04-25T07:56:59.209Z,24.97
2018-04-25T07:59:26.329Z,24.94
2018-04-25T08:01:52.978Z,25.11
2018-04-25T08:04:19.622Z,25.13
2018-04-25T08:06:46.296Z,25.22
2018-04-25T08:09:12.898Z,25.10
2018-04-25T08:11:39.583Z,25.08
2018-04-25T08:14:06.237Z,25.10
2018-04-25T08:16:32.908Z,25.10
2018-04-25T08:18:59.630Z,25.01
2018-04-25T08:21:26.346Z,24.98
2018-04-25T08:23:53.023Z,24.99
2018-04-25T08:26:19.643Z,24.94
2018-04-25T08:28:46.298Z,25.27
2018-04-25T08:31:13.014Z,25.22
2018-04-25T08:33:39.642Z,25.11
2018-04-25T08:36:06.263Z,25.06
2018-04-25T08:38:32.913Z,25.09
2018-04-25T08:40:59.559Z,25.01
2018-04-25T08:43:26.243Z,24.97
2018-04-25T08:45:52.947Z,24.98
2018-04-25T08:48:19.577Z,24.99
2018-04-25T08:50:46.242Z,24.99
2018-04-25T08:53:12.941Z,24.98
2018-04-25T08:55:39.720Z,24.86
2018-04-25T08:58:06.434Z,25.01
2018-04-25T09:00:33.089Z,25.13
2018-04-25T09:02:59.764Z,25.04
2018-04-25T09:05:26.445Z,25.11
2018-04-25T09:07:53.178Z,24.93
2018-04-25T09:10:19.862Z,24.94
2018-04-25T09:12:46.557Z,24.82
2018-04-25T09:15:13.215Z,24.87
2018-04-25T09:17:39.848Z,24.90
2018-04-25T09:20:06.504Z,24.98
2018-04-25T09:22:33.171Z,25.14
2018-04-25T09:24:59.814Z,25.06
2018-04-25T09:27:26.573Z,24.92
2018-04-25T09:29:53.167Z,24.92
2018-04-25T09:32:19.994Z,24.92
2018-04-25T09:34:46.634Z,24.99
2018-04-25T09:37:13.369Z,24.93
2018-04-25T09:39:39.971Z,24.85
2018-04-25T09:42:06.707Z,24.78
2018-04-25T09:44:33.305Z,24.78
2018-04-25T09:46:59.980Z,24.73
2018-04-25T09:49:26.664Z,24.80
2018-04-25T09:51:53.322Z,24.75
2018-04-25T09:54:19.987Z,24.78
2018-04-25T09:56:46.622Z,24.71
2018-04-25T09:59:13.288Z,24.76
2018-04-25T10:01:39.988Z,24.70
2018-04-25T10:04:06.710Z,24.81
2018-04-25T10:06:33.346Z,24.88
2018-04-25T10:09:00.033Z,24.82
2018-04-25T10:11:27.147Z,25.04
2018-04-25T10:13:53.810Z,25.01
2018-04-25T10:16:20.412Z,25.10
2018-04-25T10:18:47.043Z,24.91
2018-04-25T10:21:13.691Z,25.07
2018-04-25T10:23:40.393Z,25.03
2018-04-25T10:26:07.059Z,25.07
2018-04-25T10:28:33.724Z,25.10
2018-04-25T10:31:00.357Z,25.04
2018-04-25T10:33:27.008Z,25.06
2018-04-25T10:35:53.768Z,25.03
2018-04-25T10:38:20.537Z,25.11
2018-04-25T10:40:47.155Z,25.08
2018-04-25T10:43:15.203Z,25.04
2018-04-25T10:45:40.646Z,25.14
2018-04-25T10:48:07.274Z,25.12
2018-04-25T10:50:33.883Z,25.12
2018-04-25T10:53:00.708Z,25.11
2018-04-25T10:55:27.404Z,25.11
2018-04-25T10:57:53.955Z,24.99
2018-04-25T11:00:20.610Z,25.00
2018-04-25T11:02:47.332Z,25.07
2018-04-25T11:05:14.026Z,25.20
2018-04-25T11:07:40.663Z,25.12
2018-04-25T11:10:07.343Z,25.12
2018-04-25T11:12:33.973Z,25.05
2018-04-25T11:15:00.632Z,25.05
2018-04-25T11:17:27.338Z,25.18
2018-04-25T11:19:53.951Z,25.19
2018-04-25T11:22:20.625Z,25.22
2018-04-25T11:24:47.311Z,25.09
2018-04-25T11:27:13.955Z,25.12
2018-04-25T11:29:40.598Z,25.14
2018-04-25T11:32:07.286Z,25.13
2018-04-25T11:34:33.929Z,25.23
2018-04-25T11:37:00.560Z,25.31
2018-04-25T11:39:27.296Z,25.32
2018-04-25T11:41:54.035Z,25.33
2018-04-25T11:44:20.657Z,25.49
2018-04-25T11:46:47.334Z,25.17
2018-04-25T11:49:13.969Z,25.14
2018-04-25T11:51:40.573Z,25.29
2018-04-25T11:54:07.241Z,25.23
2018-04-25T11:56:33.900Z,25.31
2018-04-25T11:59:00.558Z,25.14
2018-04-25T12:01:27.241Z,25.18
2018-04-25T12:03:53.874Z,25.23
2018-04-25T12:06:20.556Z,25.22
2018-04-25T12:08:47.153Z,25.16
2018-04-25T12:11:13.818Z,25.25
2018-04-25T12:13:40.422Z,25.28
2018-04-25T12:16:07.102Z,25.31
2018-04-25T12:18:33.711Z,25.29
2018-04-25T12:21:00.345Z,25.31
2018-04-25T12:23:27.053Z,25.38
2018-04-25T12:25:53.716Z,25.38
2018-04-25T12:28:20.394Z,25.51
2018-04-25T12:30:46.989Z,25.40
2018-04-25T12:33:13.675Z,25.22
2018-04-25T12:35:40.403Z,25.26
2018-04-25T12:38:07.036Z,25.28
2018-04-25T12:40:33.689Z,25.43
2018-04-25T12:43:00.367Z,25.43
2018-04-25T12:45:26.979Z,25.39
2018-04-25T12:47:53.657Z,25.24
2018-04-25T12:50:20.264Z,25.07
2018-04-25T12:52:46.949Z,25.12
2018-04-25T12:55:13.542Z,25.28
2018-04-25T12:57:40.183Z,25.45
2018-04-25T13:00:06.832Z,25.45
2018-04-25T13:02:33.506Z,25.61
2018-04-25T13:05:00.133Z,25.26
2018-04-25T13:07:26.798Z,25.07
2018-04-25T13:09:53.472Z,25.28
2018-04-25T13:12:20.082Z,25.45
2018-04-25T13:14:46.717Z,25.44
2018-04-25T13:17:13.375Z,25.49
2018-04-25T13:19:40.121Z,25.47
2018-04-25T13:22:06.904Z,25.42
2018-04-25T13:24:33.515Z,25.13
2018-04-25T13:27:00.139Z,25.13
2018-04-25T13:29:26.831Z,25.30
2018-04-25T13:31:53.468Z,25.38
2018-04-25T13:34:20.110Z,25.70
2018-04-25T13:36:46.796Z,25.57
2018-04-25T13:39:13.428Z,25.40
2018-04-25T13:41:40.069Z,25.45
2018-04-25T13:44:06.732Z,25.40
2018-04-25T13:46:33.365Z,25.62
2018-04-25T13:49:00.024Z,25.58
2018-04-25T13:51:26.658Z,25.58
2018-04-25T13:53:53.304Z,25.69
2018-04-25T13:56:19.961Z,25.76
2018-04-25T13:58:46.635Z,25.67
2018-04-25T14:01:13.248Z,25.67
2018-04-25T14:03:40.915Z,25.53
2018-04-25T14:06:07.628Z,25.37
2018-04-25T14:08:34.205Z,25.42
2018-04-25T14:11:00.845Z,25.55
2018-04-25T14:13:27.498Z,25.66
2018-04-25T14:15:54.129Z,25.63
2018-04-25T14:18:20.818Z,25.56
2018-04-25T14:20:47.479Z,25.56
2018-04-25T14:23:14.106Z,25.61
2018-04-25T14:25:40.740Z,25.27
2018-04-25T14:28:07.397Z,24.71
2018-04-25T14:30:34.002Z,24.71
2018-04-25T14:33:00.655Z,25.02
2018-04-25T14:35:27.348Z,25.16
2018-04-25T14:37:53.944Z,25.24
2018-04-25T14:40:20.586Z,25.28
2018-04-25T14:42:47.227Z,25.33
2018-04-25T14:45:13.896Z,25.36
2018-04-25T14:47:40.535Z,25.45
2018-04-25T14:50:07.231Z,25.47
2018-04-25T14:52:33.905Z,25.51
2018-04-25T14:55:00.523Z,25.59
2018-04-25T14:57:27.158Z,25.50
2018-04-25T14:59:53.832Z,25.45
2018-04-25T15:02:20.450Z,25.43
2018-04-25T15:04:47.085Z,25.41
2018-04-25T15:07:13.779Z,25.45
2018-04-25T15:09:40.380Z,25.41
2018-04-25T15:12:07.013Z,25.42
2018-04-25T15:14:33.640Z,25.52
2018-04-25T15:17:00.285Z,25.40
2018-04-25T15:19:26.935Z,25.54
2018-04-25T15:21:53.599Z,25.42
2018-04-25T15:24:20.240Z,25.38
2018-04-25T15:26:46.853Z,25.35
2018-04-25T15:29:13.484Z,25.41
2018-04-25T15:31:40.134Z,25.39
2018-04-25T15:34:06.862Z,25.48
2018-04-25T15:36:33.457Z,25.47
2018-04-25T15:39:00.105Z,25.46
2018-04-25T15:41:26.743Z,25.40
2018-04-25T15:43:53.382Z,25.32
2018-04-25T15:46:20.017Z,25.40
2018-04-25T15:48:46.696Z,25.35
2018-04-25T15:51:13.317Z,25.36
2018-04-25T15:53:39.949Z,25.47
2018-04-25T15:56:06.620Z,25.46
2018-04-25T15:58:33.229Z,25.49
2018-04-25T16:00:59.941Z,25.46
2018-04-25T16:03:26.581Z,25.30
2018-04-25T16:05:53.620Z,25.25
2018-04-25T16:08:20.234Z,25.24
2018-04-25T16:10:46.904Z,25.20
2018-04-25T16:13:13.539Z,25.12
2018-04-25T16:15:40.186Z,25.17
2018-04-25T16:18:06.834Z,25.18
2018-04-25T16:20:33.441Z,25.11
2018-04-25T16:23:00.119Z,25.12
2018-04-25T16:25:26.733Z,25.09
2018-04-25T16:27:53.360Z,25.05
2018-04-25T16:30:20.062Z,25.07
2018-04-25T16:32:46.691Z,25.01
2018-04-25T16:35:13.327Z,24.96
2018-04-25T16:37:39.980Z,24.93
2018-04-25T16:40:06.612Z,24.93
2018-04-25T16:42:33.213Z,24.94
2018-04-25T16:44:59.883Z,24.87
2018-04-25T16:47:26.517Z,24.91
2018-04-25T16:49:53.156Z,24.93
2018-04-25T16:52:19.820Z,24.86
2018-04-25T16:54:46.458Z,24.82
2018-04-25T16:57:13.132Z,24.79
2018-04-25T16:59:39.733Z,24.74
2018-04-25T17:02:06.369Z,24.77
2018-04-25T17:04:32.974Z,24.74
2018-04-25T17:06:59.642Z,24.67
2018-04-25T17:09:26.249Z,24.68
2018-04-25T17:11:52.922Z,24.66
2018-04-25T17:14:19.559Z,24.67
2018-04-25T17:16:46.154Z,24.64
2018-04-25T17:19:12.888Z,24.67
2018-04-25T17:21:39.511Z,24.61
2018-04-25T17:24:06.124Z,24.60
2018-04-25T17:26:32.761Z,24.54
2018-04-25T17:28:59.438Z,24.52
2018-04-25T17:31:26.072Z,24.50
2018-04-25T17:33:52.702Z,24.56
2018-04-25T17:36:19.343Z,24.47
2018-04-25T17:38:46.031Z,24.42
2018-04-25T17:41:12.704Z,24.41
2018-04-25T17:43:39.305Z,24.40
2018-04-25T17:46:06.020Z,24.37
2018-04-25T17:48:32.649Z,24.31
2018-04-25T17:50:59.251Z,24.30
2018-04-25T17:53:25.924Z,24.28
2018-04-25T17:55:52.529Z,24.28
2018-04-25T17:58:19.162Z,24.17
2018-04-25T18:00:45.804Z,24.14
2018-04-25T18:03:12.470Z,24.08
2018-04-25T18:05:39.159Z,24.08
2018-04-25T18:08:05.785Z,24.03
2018-04-25T18:10:32.392Z,24.08
2018-04-25T18:12:59.066Z,24.09
2018-04-25T18:15:25.742Z,23.98
2018-04-25T18:17:52.381Z,24.01
2018-04-25T18:20:19.048Z,23.91
2018-04-25T18:22:45.736Z,23.95
2018-04-25T18:25:12.363Z,23.87
2018-04-25T18:27:38.971Z,23.93
2018-04-25T18:30:05.636Z,23.92
2018-04-25T18:32:32.277Z,23.90
2018-04-25T18:34:58.913Z,23.84
2018-04-25T18:37:25.652Z,23.84
2018-04-25T18:39:52.284Z,23.78
2018-04-25T18:42:18.905Z,23.75
2018-04-25T18:44:45.581Z,23.70
2018-04-25T18:47:12.212Z,23.71
2018-04-25T18:49:38.853Z,23.65
2018-04-25T18:52:05.492Z,23.64
2018-04-25T18:54:35.169Z,23.65
2018-04-25T18:57:01.759Z,23.54
2018-04-25T18:59:28.428Z,23.56
2018-04-25T19:01:55.089Z,23.52
2018-04-25T19:04:21.753Z,23.44
2018-04-25T19:06:48.384Z,23.53
2018-04-25T19:09:15.023Z,23.42
2018-04-25T19:11:41.617Z,23.44
2018-04-25T19:14:08.260Z,23.39
2018-04-25T19:16:34.936Z,23.38
2018-04-25T19:19:01.561Z,23.52
2018-04-25T19:21:28.201Z,23.54
2018-04-25T19:23:54.878Z,23.67
2018-04-25T19:26:21.511Z,23.73
2018-04-25T19:28:48.117Z,23.80
2018-04-25T19:31:14.751Z,23.78
2018-04-25T19:33:41.511Z,23.92
2018-04-25T19:36:08.060Z,23.97
2018-04-25T19:38:34.698Z,23.97
2018-04-25T19:41:01.373Z,24.03
2018-04-25T19:43:28.013Z,24.01
2018-04-25T19:45:54.615Z,23.98
2018-04-25T19:48:21.251Z,24.03
2018-04-25T19:50:47.889Z,24.04
2018-04-25T19:53:14.556Z,24.03
2018-04-25T19:55:41.232Z,24.07
2018-04-25T19:58:07.838Z,24.07
2018-04-25T20:00:34.477Z,24.11
2018-04-25T20:03:01.158Z,24.10
2018-04-25T20:05:27.828Z,24.01
2018-04-25T20:07:54.430Z,24.07
2018-04-25T20:10:21.076Z,24.05
2018-04-25T20:12:47.740Z,24.11
2018-04-25T20:15:14.386Z,24.10
2018-04-25T20:17:41.049Z,24.10
2018-04-25T20:20:07.714Z,24.02
2018-04-25T20:22:34.293Z,24.05
2018-04-25T20:25:00.965Z,24.05
2018-04-25T20:27:27.596Z,24.06
2018-04-25T20:29:54.259Z,24.09
2018-04-25T20:32:20.865Z,24.09
2018-04-25T20:34:47.562Z,24.09
2018-04-25T20:37:14.234Z,24.14
2018-04-25T20:39:40.882Z,24.07
2018-04-25T20:42:07.475Z,24.02
2018-04-25T20:44:34.122Z,24.04
2018-04-25T20:47:00.762Z,24.03
2018-04-25T20:49:27.413Z,24.02
2018-04-25T20:51:54.086Z,24.01
2018-04-25T20:54:20.718Z,24.02
2018-04-25T20:56:47.359Z,24.04
2018-04-25T20:59:14.002Z,24.11
2018-04-25T21:01:40.609Z,24.02
2018-04-25T21:04:07.254Z,23.99
2018-04-25T21:06:33.942Z,24.02
2018-04-25T21:09:00.547Z,24.02
2018-04-25T21:11:27.212Z,24.09
2018-04-25T21:13:53.847Z,24.06
2018-04-25T21:16:20.485Z,24.01
2018-04-25T21:18:47.180Z,23.98
2018-04-25T21:21:13.828Z,23.98
2018-04-25T21:23:40.468Z,23.99
2018-04-25T21:26:07.102Z,23.99
2018-04-25T21:28:33.779Z,23.96
2018-04-25T21:31:00.417Z,23.95
2018-04-25T21:33:27.052Z,23.97
2018-04-25T21:35:53.685Z,23.98
2018-04-25T21:38:20.364Z,23.93
2018-04-25T21:40:47.000Z,23.99
2018-04-25T21:43:13.666Z,23.94
2018-04-25T21:45:40.305Z,23.92
2018-04-25T21:48:06.908Z,23.87
2018-04-25T21:50:33.585Z,23.85
2018-04-25T21:53:00.305Z,23.87
2018-04-25T21:55:26.939Z,23.85
2018-04-25T21:57:53.574Z,23.87
2018-04-25T22:00:20.212Z,23.89
2018-04-25T22:02:46.841Z,23.85
2018-04-25T22:05:13.441Z,23.84
2018-04-25T22:07:40.139Z,23.86
2018-04-25T22:10:06.740Z,23.86
2018-04-25T22:12:33.413Z,23.89
2018-04-25T22:15:00.056Z,23.85
2018-04-25T22:17:26.731Z,23.84
2018-04-25T22:19:53.557Z,23.86
2018-04-25T22:22:20.278Z,23.83
2018-04-25T22:24:46.920Z,23.83
2018-04-25T22:27:13.562Z,23.82
2018-04-25T22:29:40.224Z,23.79
2018-04-25T22:32:06.877Z,23.78
2018-04-25T22:34:33.501Z,23.77
2018-04-25T22:37:00.158Z,23.79
2018-04-25T22:39:26.788Z,23.78
2018-04-25T22:41:53.436Z,23.78
2018-04-25T22:44:20.121Z,23.80
2018-04-25T22:46:46.793Z,23.77
2018-04-25T22:49:13.427Z,23.75
2018-04-25T22:51:40.037Z,23.74
2018-04-25T22:54:06.699Z,23.71
2018-04-25T22:56:33.339Z,23.75
2018-04-25T22:59:00.018Z,23.75
2018-04-25T23:01:26.637Z,23.74
2018-04-25T23:03:53.349Z,23.71
2018-04-25T23:06:19.986Z,23.67
2018-04-25T23:08:46.584Z,23.67
2018-04-25T23:11:13.292Z,23.65
2018-04-25T23:13:39.984Z,23.67
2018-04-25T23:16:06.615Z,23.63
2018-04-25T23:18:33.244Z,23.66
2018-04-25T23:20:59.851Z,23.67
2018-04-25T23:23:26.518Z,23.64
2018-04-25T23:25:55.552Z,23.61
2018-04-25T23:28:22.199Z,23.60
2018-04-25T23:30:48.907Z,23.68
2018-04-25T23:33:15.587Z,23.62
2018-04-25T23:35:42.245Z,23.66
2018-04-25T23:38:08.876Z,23.59
2018-04-25T23:40:35.510Z,23.57
2018-04-25T23:43:02.201Z,23.58
2018-04-25T23:45:28.841Z,23.56
2018-04-25T23:47:55.504Z,23.57
2018-04-25T23:50:22.105Z,23.60
2018-04-25T23:52:48.787Z,23.53
2018-04-25T23:55:15.387Z,23.50
2018-04-25T23:57:42.063Z,23.52
